sensor_id;sensor_type;location;lat;lon;timestamp;temperature;humidity
36548;DHT22;22551;52.206;4.856;2023-03-02T00:03:35;2.20;99.90
36548;DHT22;22551;52.206;4.856;2023-03-02T00:08:40;2.20;99.90
36548;DHT22;22551;52.206;4.856;2023-03-02T00:13:43;2.20;99.90
36548;DHT22;22551;52.206;4.856;2023-03-02T00:18:45;2.10;99.90
36548;DHT22;22551;52.206;4.856;2023-03-02T00:23:49;2.10;99.90
36548;DHT22;22551;52.206;4.856;2023-03-02T00:28:51;2.10;99.90
36548;DHT22;22551;52.206;4.856;2023-03-02T00:33:54;2.00;99.90
36548;DHT22;22551;52.206;4.856;2023-03-02T00:38:58;2.10;99.90
36548;DHT22;22551;52.206;4.856;2023-03-02T00:44:01;2.10;99.90
36548;DHT22;22551;52.206;4.856;2023-03-02T00:49:03;2.10;99.90
36548;DHT22;22551;52.206;4.856;2023-03-02T00:54:07;2.10;99.90
36548;DHT22;22551;52.206;4.856;2023-03-02T00:59:11;2.10;99.90
36548;DHT22;22551;52.206;4.856;2023-03-02T01:04:26;2.10;99.90
36548;DHT22;22551;52.206;4.856;2023-03-02T01:09:32;2.10;99.90
36548;DHT22;22551;52.206;4.856;2023-03-02T01:14:36;2.10;99.90
36548;DHT22;22551;52.206;4.856;2023-03-02T01:19:39;2.10;99.90
36548;DHT22;22551;52.206;4.856;2023-03-02T01:24:44;2.00;99.90
36548;DHT22;22551;52.206;4.856;2023-03-02T01:29:46;2.00;99.90
36548;DHT22;22551;52.206;4.856;2023-03-02T01:34:50;2.00;99.90
36548;DHT22;22551;52.206;4.856;2023-03-02T01:39:54;1.90;99.90
36548;DHT22;22551;52.206;4.856;2023-03-02T01:44:56;1.90;99.90
36548;DHT22;22551;52.206;4.856;2023-03-02T01:50:03;1.80;99.90
36548;DHT22;22551;52.206;4.856;2023-03-02T01:55:10;1.80;99.90
36548;DHT22;22551;52.206;4.856;2023-03-02T02:00:16;1.70;99.90
36548;DHT22;22551;52.206;4.856;2023-03-02T02:05:23;1.70;99.90
36548;DHT22;22551;52.206;4.856;2023-03-02T02:10:30;1.60;99.90
36548;DHT22;22551;52.206;4.856;2023-03-02T02:15:32;1.60;99.90
36548;DHT22;22551;52.206;4.856;2023-03-02T02:20:36;1.50;99.90
36548;DHT22;22551;52.206;4.856;2023-03-02T02:25:53;1.40;99.90
36548;DHT22;22551;52.206;4.856;2023-03-02T02:31:13;1.40;99.90
36548;DHT22;22551;52.206;4.856;2023-03-02T02:36:20;1.40;99.90
36548;DHT22;22551;52.206;4.856;2023-03-02T02:41:28;1.30;99.90
36548;DHT22;22551;52.206;4.856;2023-03-02T02:46:35;1.30;99.90
36548;DHT22;22551;52.206;4.856;2023-03-02T02:51:37;1.30;99.90
36548;DHT22;22551;52.206;4.856;2023-03-02T02:56:41;1.30;99.90
36548;DHT22;22551;52.206;4.856;2023-03-02T03:01:47;1.30;99.90
36548;DHT22;22551;52.206;4.856;2023-03-02T03:06:51;1.30;99.90
36548;DHT22;22551;52.206;4.856;2023-03-02T03:11:57;1.30;99.90
36548;DHT22;22551;52.206;4.856;2023-03-02T03:17:02;1.20;99.90
36548;DHT22;22551;52.206;4.856;2023-03-02T03:22:13;1.20;99.90
36548;DHT22;22551;52.206;4.856;2023-03-02T03:27:18;1.10;99.90
36548;DHT22;22551;52.206;4.856;2023-03-02T03:32:20;1.10;99.90
36548;DHT22;22551;52.206;4.856;2023-03-02T03:37:23;1.10;99.90
36548;DHT22;22551;52.206;4.856;2023-03-02T03:42:27;1.10;99.90
36548;DHT22;22551;52.206;4.856;2023-03-02T03:47:31;1.10;99.90
36548;DHT22;22551;52.206;4.856;2023-03-02T03:52:34;1.00;99.90
36548;DHT22;22551;52.206;4.856;2023-03-02T03:57:47;1.00;99.90
36548;DHT22;22551;52.206;4.856;2023-03-02T04:02:50;1.00;99.90
36548;DHT22;22551;52.206;4.856;2023-03-02T04:07:53;1.00;99.90
36548;DHT22;22551;52.206;4.856;2023-03-02T04:12:57;1.00;99.90
36548;DHT22;22551;52.206;4.856;2023-03-02T04:18:00;0.90;99.90
36548;DHT22;22551;52.206;4.856;2023-03-02T04:23:02;0.90;99.90
36548;DHT22;22551;52.206;4.856;2023-03-02T04:28:06;0.90;99.90
36548;DHT22;22551;52.206;4.856;2023-03-02T04:33:08;0.90;99.90
36548;DHT22;22551;52.206;4.856;2023-03-02T04:38:10;0.90;99.90
36548;DHT22;22551;52.206;4.856;2023-03-02T04:43:14;0.90;99.90
36548;DHT22;22551;52.206;4.856;2023-03-02T04:48:17;0.80;99.90
36548;DHT22;22551;52.206;4.856;2023-03-02T04:53:20;0.80;99.90
36548;DHT22;22551;52.206;4.856;2023-03-02T04:58:23;0.80;99.90
36548;DHT22;22551;52.206;4.856;2023-03-02T05:03:26;0.80;99.90
36548;DHT22;22551;52.206;4.856;2023-03-02T05:08:28;0.80;99.90
36548;DHT22;22551;52.206;4.856;2023-03-02T05:13:34;0.80;99.90
36548;DHT22;22551;52.206;4.856;2023-03-02T05:18:37;0.70;99.90
36548;DHT22;22551;52.206;4.856;2023-03-02T05:23:39;0.70;99.90
36548;DHT22;22551;52.206;4.856;2023-03-02T05:28:43;0.70;99.90
36548;DHT22;22551;52.206;4.856;2023-03-02T05:33:46;0.70;99.90
36548;DHT22;22551;52.206;4.856;2023-03-02T05:38:48;0.60;99.90
36548;DHT22;22551;52.206;4.856;2023-03-02T05:43:52;0.70;99.90
36548;DHT22;22551;52.206;4.856;2023-03-02T05:48:55;0.60;99.90
36548;DHT22;22551;52.206;4.856;2023-03-02T05:53:57;0.60;99.90
36548;DHT22;22551;52.206;4.856;2023-03-02T05:59:01;0.60;99.90
36548;DHT22;22551;52.206;4.856;2023-03-02T06:04:03;0.60;99.90
36548;DHT22;22551;52.206;4.856;2023-03-02T06:09:05;0.60;99.90
36548;DHT22;22551;52.206;4.856;2023-03-02T06:14:09;0.60;99.90
36548;DHT22;22551;52.206;4.856;2023-03-02T06:19:11;0.50;99.90
36548;DHT22;22551;52.206;4.856;2023-03-02T06:24:14;0.50;99.90
36548;DHT22;22551;52.206;4.856;2023-03-02T06:29:17;0.50;99.90
36548;DHT22;22551;52.206;4.856;2023-03-02T06:34:19;0.50;99.90
36548;DHT22;22551;52.206;4.856;2023-03-02T06:39:22;0.60;99.90
36548;DHT22;22551;52.206;4.856;2023-03-02T06:44:25;0.60;99.90
36548;DHT22;22551;52.206;4.856;2023-03-02T06:49:28;0.50;99.90
36548;DHT22;22551;52.206;4.856;2023-03-02T06:54:30;0.60;99.90
36548;DHT22;22551;52.206;4.856;2023-03-02T06:59:34;0.60;99.90
36548;DHT22;22551;52.206;4.856;2023-03-02T07:04:36;0.60;99.90
36548;DHT22;22551;52.206;4.856;2023-03-02T07:09:39;0.60;99.90
36548;DHT22;22551;52.206;4.856;2023-03-02T07:14:43;0.60;99.90
36548;DHT22;22551;52.206;4.856;2023-03-02T07:19:45;0.70;99.90
36548;DHT22;22551;52.206;4.856;2023-03-02T07:24:47;0.70;99.90
36548;DHT22;22551;52.206;4.856;2023-03-02T07:29:51;0.80;99.90
36548;DHT22;22551;52.206;4.856;2023-03-02T07:34:54;1.00;99.90
36548;DHT22;22551;52.206;4.856;2023-03-02T07:39:56;1.00;99.90
36548;DHT22;22551;52.206;4.856;2023-03-02T07:45:00;1.00;99.90
36548;DHT22;22551;52.206;4.856;2023-03-02T07:50:04;1.00;99.90
36548;DHT22;22551;52.206;4.856;2023-03-02T07:55:08;1.00;99.90
36548;DHT22;22551;52.206;4.856;2023-03-02T08:00:14;1.10;99.90
36548;DHT22;22551;52.206;4.856;2023-03-02T08:05:18;1.20;99.90
36548;DHT22;22551;52.206;4.856;2023-03-02T08:10:20;1.20;99.90
36548;DHT22;22551;52.206;4.856;2023-03-02T08:15:24;1.30;99.90
36548;DHT22;22551;52.206;4.856;2023-03-02T08:20:26;1.40;99.90
36548;DHT22;22551;52.206;4.856;2023-03-02T08:25:29;1.50;99.90
36548;DHT22;22551;52.206;4.856;2023-03-02T08:30:32;1.60;99.90
36548;DHT22;22551;52.206;4.856;2023-03-02T08:35:35;1.70;99.90
36548;DHT22;22551;52.206;4.856;2023-03-02T08:40:37;1.80;99.90
36548;DHT22;22551;52.206;4.856;2023-03-02T08:45:41;2.00;99.90
36548;DHT22;22551;52.206;4.856;2023-03-02T08:50:43;2.10;99.90
36548;DHT22;22551;52.206;4.856;2023-03-02T08:55:45;2.20;99.90
36548;DHT22;22551;52.206;4.856;2023-03-02T09:00:49;2.40;99.90
36548;DHT22;22551;52.206;4.856;2023-03-02T09:05:52;2.50;99.90
36548;DHT22;22551;52.206;4.856;2023-03-02T09:10:54;2.70;99.90
36548;DHT22;22551;52.206;4.856;2023-03-02T09:15:58;2.90;99.90
36548;DHT22;22551;52.206;4.856;2023-03-02T09:21:01;2.90;99.90
36548;DHT22;22551;52.206;4.856;2023-03-02T09:26:04;3.10;99.90
36548;DHT22;22551;52.206;4.856;2023-03-02T09:31:08;3.20;99.90
36548;DHT22;22551;52.206;4.856;2023-03-02T09:36:19;3.20;99.90
36548;DHT22;22551;52.206;4.856;2023-03-02T09:41:45;3.30;99.90
36548;DHT22;22551;52.206;4.856;2023-03-02T09:47:15;3.50;99.90
36548;DHT22;22551;52.206;4.856;2023-03-02T09:52:26;3.80;99.90
36548;DHT22;22551;52.206;4.856;2023-03-02T09:57:33;4.20;99.90
36548;DHT22;22551;52.206;4.856;2023-03-02T10:02:45;4.30;99.90
36548;DHT22;22551;52.206;4.856;2023-03-02T10:07:48;4.60;99.90
36548;DHT22;22551;52.206;4.856;2023-03-02T10:13:09;4.70;99.90
36548;DHT22;22551;52.206;4.856;2023-03-02T10:18:23;4.80;99.90
36548;DHT22;22551;52.206;4.856;2023-03-02T10:23:40;5.00;99.90
36548;DHT22;22551;52.206;4.856;2023-03-02T10:28:47;5.20;99.90
36548;DHT22;22551;52.206;4.856;2023-03-02T10:33:53;5.00;99.90
36548;DHT22;22551;52.206;4.856;2023-03-02T10:38:58;5.30;99.90
36548;DHT22;22551;52.206;4.856;2023-03-02T10:44:04;5.20;99.90
36548;DHT22;22551;52.206;4.856;2023-03-02T10:49:27;5.40;99.90
36548;DHT22;22551;52.206;4.856;2023-03-02T10:54:32;5.40;99.90
36548;DHT22;22551;52.206;4.856;2023-03-02T10:59:43;5.40;99.90
36548;DHT22;22551;52.206;4.856;2023-03-02T11:04:48;5.70;99.90
36548;DHT22;22551;52.206;4.856;2023-03-02T11:10:00;5.90;99.90
36548;DHT22;22551;52.206;4.856;2023-03-02T11:15:23;5.80;99.90
36548;DHT22;22551;52.206;4.856;2023-03-02T11:20:30;5.80;99.90
36548;DHT22;22551;52.206;4.856;2023-03-02T11:25:38;5.90;99.90
36548;DHT22;22551;52.206;4.856;2023-03-02T11:30:46;5.90;99.90
36548;DHT22;22551;52.206;4.856;2023-03-02T11:35:53;6.10;99.90
36548;DHT22;22551;52.206;4.856;2023-03-02T11:41:00;6.00;99.90
36548;DHT22;22551;52.206;4.856;2023-03-02T11:46:07;6.40;99.90
36548;DHT22;22551;52.206;4.856;2023-03-02T11:51:19;6.50;99.90
36548;DHT22;22551;52.206;4.856;2023-03-02T11:56:24;6.10;99.90
36548;DHT22;22551;52.206;4.856;2023-03-02T12:01:27;6.20;99.90
36548;DHT22;22551;52.206;4.856;2023-03-02T12:06:37;6.70;99.90
36548;DHT22;22551;52.206;4.856;2023-03-02T12:11:40;6.90;99.90
36548;DHT22;22551;52.206;4.856;2023-03-02T12:16:50;6.60;99.90
36548;DHT22;22551;52.206;4.856;2023-03-02T12:21:59;6.60;99.90
36548;DHT22;22551;52.206;4.856;2023-03-02T12:27:19;6.70;99.90
36548;DHT22;22551;52.206;4.856;2023-03-02T12:32:27;6.70;99.90
36548;DHT22;22551;52.206;4.856;2023-03-02T12:37:39;6.80;99.90
36548;DHT22;22551;52.206;4.856;2023-03-02T12:42:59;6.90;99.90
36548;DHT22;22551;52.206;4.856;2023-03-02T12:48:24;6.60;99.90
36548;DHT22;22551;52.206;4.856;2023-03-02T12:53:30;6.40;99.90
36548;DHT22;22551;52.206;4.856;2023-03-02T12:58:33;6.30;99.90
36548;DHT22;22551;52.206;4.856;2023-03-02T13:03:44;6.10;99.90
36548;DHT22;22551;52.206;4.856;2023-03-02T13:08:53;6.20;99.90
36548;DHT22;22551;52.206;4.856;2023-03-02T13:13:57;6.60;99.90
36548;DHT22;22551;52.206;4.856;2023-03-02T13:19:03;6.50;99.90
36548;DHT22;22551;52.206;4.856;2023-03-02T13:24:26;6.80;99.90
36548;DHT22;22551;52.206;4.856;2023-03-02T13:29:31;6.80;99.90
36548;DHT22;22551;52.206;4.856;2023-03-02T13:34:33;6.70;99.90
36548;DHT22;22551;52.206;4.856;2023-03-02T13:39:37;6.90;99.90
36548;DHT22;22551;52.206;4.856;2023-03-02T13:44:40;7.10;99.90
36548;DHT22;22551;52.206;4.856;2023-03-02T13:49:42;7.20;99.90
36548;DHT22;22551;52.206;4.856;2023-03-02T13:54:46;6.90;99.90
36548;DHT22;22551;52.206;4.856;2023-03-02T13:59:48;6.60;99.90
36548;DHT22;22551;52.206;4.856;2023-03-02T14:04:51;6.70;99.90
36548;DHT22;22551;52.206;4.856;2023-03-02T14:09:55;6.80;99.90
36548;DHT22;22551;52.206;4.856;2023-03-02T14:15:00;6.60;99.90
36548;DHT22;22551;52.206;4.856;2023-03-02T14:20:03;6.60;99.90
36548;DHT22;22551;52.206;4.856;2023-03-02T14:25:09;6.40;99.90
36548;DHT22;22551;52.206;4.856;2023-03-02T14:30:14;6.40;99.90
36548;DHT22;22551;52.206;4.856;2023-03-02T14:35:18;6.20;99.90
36548;DHT22;22551;52.206;4.856;2023-03-02T14:40:24;6.30;99.90
36548;DHT22;22551;52.206;4.856;2023-03-02T14:45:28;6.30;99.90
36548;DHT22;22551;52.206;4.856;2023-03-02T14:50:37;6.40;99.90
36548;DHT22;22551;52.206;4.856;2023-03-02T14:55:42;6.40;99.90
36548;DHT22;22551;52.206;4.856;2023-03-02T15:00:45;6.30;99.90
36548;DHT22;22551;52.206;4.856;2023-03-02T15:05:49;6.30;99.90
36548;DHT22;22551;52.206;4.856;2023-03-02T15:10:54;6.30;99.90
36548;DHT22;22551;52.206;4.856;2023-03-02T15:15:56;6.30;99.90
36548;DHT22;22551;52.206;4.856;2023-03-02T15:20:58;6.40;99.90
36548;DHT22;22551;52.206;4.856;2023-03-02T15:26:03;6.50;99.90
36548;DHT22;22551;52.206;4.856;2023-03-02T15:31:08;6.70;99.90
36548;DHT22;22551;52.206;4.856;2023-03-02T15:36:12;6.70;99.90
36548;DHT22;22551;52.206;4.856;2023-03-02T15:41:16;6.60;99.90
36548;DHT22;22551;52.206;4.856;2023-03-02T15:46:19;6.60;99.90
36548;DHT22;22551;52.206;4.856;2023-03-02T15:51:22;6.70;99.90
36548;DHT22;22551;52.206;4.856;2023-03-02T15:56:26;6.70;99.90
36548;DHT22;22551;52.206;4.856;2023-03-02T16:01:28;6.70;99.90
36548;DHT22;22551;52.206;4.856;2023-03-02T16:06:30;6.60;99.90
36548;DHT22;22551;52.206;4.856;2023-03-02T16:11:34;6.60;99.90
36548;DHT22;22551;52.206;4.856;2023-03-02T16:16:36;6.50;99.90
36548;DHT22;22551;52.206;4.856;2023-03-02T16:21:39;6.40;99.90
36548;DHT22;22551;52.206;4.856;2023-03-02T16:26:43;6.40;99.90
36548;DHT22;22551;52.206;4.856;2023-03-02T16:31:46;6.40;99.90
36548;DHT22;22551;52.206;4.856;2023-03-02T16:36:48;6.40;99.90
36548;DHT22;22551;52.206;4.856;2023-03-02T16:41:52;6.30;99.90
36548;DHT22;22551;52.206;4.856;2023-03-02T16:46:54;6.30;99.90
36548;DHT22;22551;52.206;4.856;2023-03-02T16:51:57;6.20;99.90
36548;DHT22;22551;52.206;4.856;2023-03-02T16:57:00;6.20;99.90
36548;DHT22;22551;52.206;4.856;2023-03-02T17:02:03;6.10;99.90
36548;DHT22;22551;52.206;4.856;2023-03-02T17:07:06;6.00;99.90
36548;DHT22;22551;52.206;4.856;2023-03-02T17:12:15;6.00;99.90
36548;DHT22;22551;52.206;4.856;2023-03-02T17:17:17;5.90;99.90
36548;DHT22;22551;52.206;4.856;2023-03-02T17:22:20;5.80;99.90
36548;DHT22;22551;52.206;4.856;2023-03-02T17:27:24;5.70;99.90
36548;DHT22;22551;52.206;4.856;2023-03-02T17:32:26;5.70;99.90
36548;DHT22;22551;52.206;4.856;2023-03-02T17:37:29;5.60;99.90
36548;DHT22;22551;52.206;4.856;2023-03-02T17:42:33;5.50;99.90
36548;DHT22;22551;52.206;4.856;2023-03-02T17:47:35;5.40;99.90
36548;DHT22;22551;52.206;4.856;2023-03-02T17:52:37;5.30;99.90
36548;DHT22;22551;52.206;4.856;2023-03-02T17:57:42;5.20;99.90
36548;DHT22;22551;52.206;4.856;2023-03-02T18:02:44;5.10;99.90
36548;DHT22;22551;52.206;4.856;2023-03-02T18:07:47;5.00;99.90
36548;DHT22;22551;52.206;4.856;2023-03-02T18:12:52;4.90;99.90
36548;DHT22;22551;52.206;4.856;2023-03-02T18:17:56;4.90;99.90
36548;DHT22;22551;52.206;4.856;2023-03-02T18:22:58;4.90;99.90
36548;DHT22;22551;52.206;4.856;2023-03-02T18:28:05;4.80;99.90
36548;DHT22;22551;52.206;4.856;2023-03-02T18:33:08;4.80;99.90
36548;DHT22;22551;52.206;4.856;2023-03-02T18:38:10;4.80;99.90
36548;DHT22;22551;52.206;4.856;2023-03-02T18:43:13;4.80;99.90
36548;DHT22;22551;52.206;4.856;2023-03-02T18:48:15;4.70;99.90
36548;DHT22;22551;52.206;4.856;2023-03-02T18:53:18;4.70;99.90
36548;DHT22;22551;52.206;4.856;2023-03-02T18:58:22;4.60;99.90
36548;DHT22;22551;52.206;4.856;2023-03-02T19:03:25;4.60;99.90
36548;DHT22;22551;52.206;4.856;2023-03-02T19:08:28;4.60;99.90
36548;DHT22;22551;52.206;4.856;2023-03-02T19:13:32;4.50;99.90
36548;DHT22;22551;52.206;4.856;2023-03-02T19:18:35;4.50;99.90
36548;DHT22;22551;52.206;4.856;2023-03-02T19:23:37;4.50;99.90
36548;DHT22;22551;52.206;4.856;2023-03-02T19:28:41;4.50;99.90
36548;DHT22;22551;52.206;4.856;2023-03-02T19:33:44;4.40;99.90
36548;DHT22;22551;52.206;4.856;2023-03-02T19:38:46;4.40;99.90
36548;DHT22;22551;52.206;4.856;2023-03-02T19:43:50;4.30;99.90
36548;DHT22;22551;52.206;4.856;2023-03-02T19:48:52;4.20;99.90
36548;DHT22;22551;52.206;4.856;2023-03-02T19:53:54;4.20;99.90
36548;DHT22;22551;52.206;4.856;2023-03-02T19:58:58;4.20;99.90
36548;DHT22;22551;52.206;4.856;2023-03-02T20:04:03;4.20;99.90
36548;DHT22;22551;52.206;4.856;2023-03-02T20:09:06;4.20;99.90
36548;DHT22;22551;52.206;4.856;2023-03-02T20:14:15;4.10;99.90
36548;DHT22;22551;52.206;4.856;2023-03-02T20:19:18;4.10;99.90
36548;DHT22;22551;52.206;4.856;2023-03-02T20:24:22;4.00;99.90
36548;DHT22;22551;52.206;4.856;2023-03-02T20:29:26;3.90;99.90
36548;DHT22;22551;52.206;4.856;2023-03-02T20:34:29;3.80;99.90
36548;DHT22;22551;52.206;4.856;2023-03-02T20:39:36;3.70;99.90
36548;DHT22;22551;52.206;4.856;2023-03-02T20:44:44;3.70;99.90
36548;DHT22;22551;52.206;4.856;2023-03-02T20:49:47;3.60;99.90
36548;DHT22;22551;52.206;4.856;2023-03-02T20:54:49;3.60;99.90
36548;DHT22;22551;52.206;4.856;2023-03-02T20:59:53;3.60;99.90
36548;DHT22;22551;52.206;4.856;2023-03-02T21:04:56;3.50;99.90
36548;DHT22;22551;52.206;4.856;2023-03-02T21:09:58;3.40;99.90
36548;DHT22;22551;52.206;4.856;2023-03-02T21:15:02;3.40;99.90
36548;DHT22;22551;52.206;4.856;2023-03-02T21:20:07;3.30;99.90
36548;DHT22;22551;52.206;4.856;2023-03-02T21:25:11;3.20;99.90
36548;DHT22;22551;52.206;4.856;2023-03-02T21:30:17;3.10;99.90
36548;DHT22;22551;52.206;4.856;2023-03-02T21:35:21;3.00;99.90
36548;DHT22;22551;52.206;4.856;2023-03-02T21:40:26;3.00;99.90
36548;DHT22;22551;52.206;4.856;2023-03-02T21:45:31;3.00;99.90
36548;DHT22;22551;52.206;4.856;2023-03-02T21:50:36;3.00;99.90
36548;DHT22;22551;52.206;4.856;2023-03-02T21:55:39;3.00;99.90
36548;DHT22;22551;52.206;4.856;2023-03-02T22:00:43;3.00;99.90
36548;DHT22;22551;52.206;4.856;2023-03-02T22:05:47;3.10;99.90
36548;DHT22;22551;52.206;4.856;2023-03-02T22:10:51;3.10;99.90
36548;DHT22;22551;52.206;4.856;2023-03-02T22:16:01;3.10;99.90
36548;DHT22;22551;52.206;4.856;2023-03-02T22:21:25;3.10;99.90
36548;DHT22;22551;52.206;4.856;2023-03-02T22:26:31;3.10;99.90
36548;DHT22;22551;52.206;4.856;2023-03-02T22:31:38;3.00;99.90
36548;DHT22;22551;52.206;4.856;2023-03-02T22:36:44;3.00;99.90
36548;DHT22;22551;52.206;4.856;2023-03-02T22:41:46;3.00;99.90
36548;DHT22;22551;52.206;4.856;2023-03-02T22:46:50;3.00;99.90
36548;DHT22;22551;52.206;4.856;2023-03-02T22:51:53;2.90;99.90
36548;DHT22;22551;52.206;4.856;2023-03-02T22:56:56;2.80;99.90
36548;DHT22;22551;52.206;4.856;2023-03-02T23:02:01;2.80;99.90
36548;DHT22;22551;52.206;4.856;2023-03-02T23:07:15;2.80;99.90
36548;DHT22;22551;52.206;4.856;2023-03-02T23:12:22;2.80;99.90
36548;DHT22;22551;52.206;4.856;2023-03-02T23:17:32;2.80;99.90
36548;DHT22;22551;52.206;4.856;2023-03-02T23:22:36;2.70;99.90
36548;DHT22;22551;52.206;4.856;2023-03-02T23:27:38;2.60;99.90
36548;DHT22;22551;52.206;4.856;2023-03-02T23:32:43;2.60;99.90
36548;DHT22;22551;52.206;4.856;2023-03-02T23:37:45;2.60;99.90
36548;DHT22;22551;52.206;4.856;2023-03-02T23:42:48;2.70;99.90
36548;DHT22;22551;52.206;4.856;2023-03-02T23:47:51;2.70;99.90
36548;DHT22;22551;52.206;4.856;2023-03-02T23:52:54;2.60;99.90
36548;DHT22;22551;52.206;4.856;2023-03-02T23:57:56;2.60;99.90
